createdAt,value
2023-03-12T00:05:30.549Z,9.89
2023-03-12T00:08:16.472Z,9.37
2023-03-12T00:11:02.295Z,9.37
2023-03-12T00:13:50.303Z,9.57
2023-03-12T00:16:36.169Z,9.68
2023-03-12T00:19:22.117Z,9.94
2023-03-12T00:22:08.204Z,9.85
2023-03-12T00:24:54.039Z,9.93
2023-03-12T00:27:39.882Z,9.79
2023-03-12T00:30:25.816Z,9.81
2023-03-12T00:33:11.698Z,9.63
2023-03-12T00:35:57.682Z,9.79
2023-03-12T00:38:43.623Z,9.50
2023-03-12T00:41:29.474Z,9.91
2023-03-12T00:44:15.332Z,9.64
2023-03-12T00:47:01.398Z,9.73
2023-03-12T00:49:47.546Z,9.62
2023-03-12T00:52:33.477Z,9.28
2023-03-12T00:55:19.377Z,9.30
2023-03-12T00:58:05.198Z,9.36
2023-03-12T01:00:51.051Z,9.26
2023-03-12T01:03:37.164Z,9.47
2023-03-12T01:06:23.230Z,9.30
2023-03-12T01:09:09.173Z,9.50
2023-03-12T01:11:55.163Z,9.17
2023-03-12T01:14:41.215Z,9.31
2023-03-12T01:17:27.039Z,9.23
2023-03-12T01:20:13.001Z,9.40
2023-03-12T01:22:58.694Z,9.22
2023-03-12T01:25:44.787Z,9.54
2023-03-12T01:28:30.955Z,9.59
2023-03-12T01:31:18.825Z,9.48
2023-03-12T01:34:04.819Z,9.34
2023-03-12T01:36:50.626Z,9.38
2023-03-12T01:39:36.522Z,8.98
2023-03-12T01:42:22.431Z,9.09
2023-03-12T01:45:08.182Z,9.01
2023-03-12T01:47:54.069Z,9.07
2023-03-12T01:50:39.969Z,8.92
2023-03-12T01:53:25.902Z,9.21
2023-03-12T01:56:11.921Z,9.34
2023-03-12T01:58:57.729Z,9.30
2023-03-12T02:01:43.543Z,9.18
2023-03-12T02:04:29.457Z,9.30
2023-03-12T02:07:15.238Z,9.50
2023-03-12T02:10:01.178Z,9.64
2023-03-12T02:12:47.039Z,9.78
2023-03-12T02:15:32.905Z,9.53
2023-03-12T02:18:18.863Z,9.72
2023-03-12T02:21:06.120Z,9.50
2023-03-12T02:23:51.954Z,9.45
2023-03-12T02:26:37.974Z,9.58
2023-03-12T02:29:23.762Z,9.59
2023-03-12T02:32:09.748Z,9.73
2023-03-12T02:34:55.654Z,9.64
2023-03-12T02:37:41.311Z,9.24
2023-03-12T02:40:27.251Z,9.26
2023-03-12T02:43:12.960Z,9.44
2023-03-12T02:45:58.971Z,9.69
2023-03-12T02:48:44.941Z,9.69
2023-03-12T02:51:30.668Z,9.85
2023-03-12T02:54:16.567Z,9.90
2023-03-12T02:57:02.412Z,9.52
2023-03-12T02:59:48.354Z,9.98
2023-03-12T03:02:34.346Z,10.11
2023-03-12T03:05:20.061Z,10.03
2023-03-12T03:08:05.981Z,9.78
2023-03-12T03:10:51.843Z,10.18
2023-03-12T03:13:37.561Z,10.39
2023-03-12T03:16:23.451Z,10.41
2023-03-12T03:19:09.299Z,10.51
2023-03-12T03:21:55.267Z,10.53
2023-03-12T03:24:41.222Z,10.74
2023-03-12T03:27:26.991Z,10.57
2023-03-12T03:30:12.804Z,10.25
2023-03-12T03:32:58.821Z,10.29
2023-03-12T03:35:44.677Z,10.18
2023-03-12T03:38:30.690Z,10.36
2023-03-12T03:41:16.498Z,10.01
2023-03-12T03:44:02.391Z,10.14
2023-03-12T03:46:48.288Z,10.19
2023-03-12T03:49:34.010Z,10.15
2023-03-12T03:52:19.884Z,10.37
2023-03-12T03:55:05.616Z,10.39
2023-03-12T03:57:51.409Z,10.20
2023-03-12T04:00:37.357Z,10.32
2023-03-12T04:03:23.295Z,10.51
2023-03-12T04:06:09.150Z,10.15
2023-03-12T04:08:55.130Z,9.78
2023-03-12T04:11:40.975Z,9.63
2023-03-12T04:14:26.916Z,8.96
2023-03-12T04:17:12.920Z,8.49
2023-03-12T04:19:58.796Z,8.57
2023-03-12T04:22:44.906Z,8.23
2023-03-12T04:25:30.727Z,8.41
2023-03-12T04:28:16.539Z,8.21
2023-03-12T04:31:02.589Z,8.70
2023-03-12T04:33:48.471Z,8.72
2023-03-12T04:36:34.361Z,8.69
2023-03-12T04:39:20.269Z,8.87
2023-03-12T04:42:06.144Z,8.78
2023-03-12T04:44:52.195Z,8.91
2023-03-12T04:47:37.935Z,9.02
2023-03-12T04:50:23.934Z,9.32
2023-03-12T04:53:09.786Z,8.98
2023-03-12T04:55:55.794Z,9.16
2023-03-12T04:58:41.637Z,8.98
2023-03-12T05:01:27.611Z,8.88
2023-03-12T05:04:13.558Z,9.15
2023-03-12T05:06:59.513Z,9.10
2023-03-12T05:09:45.338Z,9.25
2023-03-12T05:12:31.280Z,9.34
2023-03-12T05:15:17.138Z,9.03
2023-03-12T05:18:02.982Z,9.37
2023-03-12T05:20:48.712Z,9.22
2023-03-12T05:23:34.636Z,9.47
2023-03-12T05:26:20.511Z,9.11
2023-03-12T05:29:06.379Z,9.32
2023-03-12T05:31:52.720Z,9.55
2023-03-12T05:34:38.671Z,9.44
2023-03-12T05:37:24.465Z,9.56
2023-03-12T05:40:10.463Z,9.55
2023-03-12T05:42:56.323Z,9.52
2023-03-12T05:45:42.193Z,9.64
2023-03-12T05:48:28.221Z,9.60
2023-03-12T05:51:14.086Z,9.56
2023-03-12T05:53:59.798Z,9.17
2023-03-12T05:56:45.809Z,9.48
2023-03-12T05:59:31.510Z,9.59
2023-03-12T06:02:17.532Z,9.32
2023-03-12T06:05:03.543Z,9.60
2023-03-12T06:07:49.439Z,9.58
2023-03-12T06:10:35.247Z,9.37
2023-03-12T06:13:21.117Z,9.21
2023-03-12T06:16:06.893Z,9.25
2023-03-12T06:18:52.770Z,9.32
2023-03-12T06:21:38.540Z,9.28
2023-03-12T06:24:24.386Z,8.86
2023-03-12T06:27:10.371Z,9.01
2023-03-12T06:29:56.272Z,8.82
2023-03-12T06:32:42.166Z,8.43
2023-03-12T06:35:28.195Z,9.01
2023-03-12T06:38:14.303Z,8.82
2023-03-12T06:41:00.306Z,9.15
2023-03-12T06:43:46.125Z,9.00
2023-03-12T06:46:32.003Z,8.80
2023-03-12T06:49:17.989Z,8.90
2023-03-12T06:52:03.907Z,9.00
2023-03-12T06:54:49.767Z,9.29
2023-03-12T06:57:35.521Z,9.31
2023-03-12T07:00:21.315Z,9.45
2023-03-12T07:03:07.235Z,9.47
2023-03-12T07:05:53.218Z,9.32
2023-03-12T07:08:39.184Z,9.18
2023-03-12T07:11:25.046Z,9.46
2023-03-12T07:14:10.893Z,9.55
2023-03-12T07:16:56.864Z,9.57
2023-03-12T07:19:42.672Z,9.69
2023-03-12T07:22:28.495Z,9.79
2023-03-12T07:25:14.369Z,9.62
2023-03-12T07:28:00.287Z,10.08
2023-03-12T07:30:46.086Z,10.10
2023-03-12T07:33:31.932Z,10.05
2023-03-12T07:36:18.205Z,9.87
2023-03-12T07:39:04.486Z,9.80
2023-03-12T07:41:50.472Z,9.51
2023-03-12T07:44:36.725Z,9.52
2023-03-12T07:47:24.461Z,9.54
2023-03-12T07:50:10.484Z,9.70
2023-03-12T07:52:56.348Z,9.75
2023-03-12T07:55:42.342Z,9.50
2023-03-12T07:58:28.264Z,9.23
2023-03-12T08:01:14.230Z,9.29
2023-03-12T08:04:00.026Z,9.37
2023-03-12T08:06:46.050Z,9.58
2023-03-12T08:09:31.926Z,9.52
2023-03-12T08:12:17.947Z,9.66
2023-03-12T08:15:04.057Z,9.61
2023-03-12T08:17:49.993Z,9.73
2023-03-12T08:20:37.917Z,9.66
2023-03-12T08:23:23.749Z,9.56
2023-03-12T08:26:09.591Z,9.44
2023-03-12T08:28:55.349Z,10.05
2023-03-12T08:31:53.801Z,9.69
2023-03-12T08:34:47.391Z,9.83
2023-03-12T08:37:33.118Z,9.56
2023-03-12T08:40:19.110Z,9.49
2023-03-12T08:43:04.971Z,9.97
2023-03-12T08:45:50.804Z,9.93
2023-03-12T08:48:36.870Z,10.01
2023-03-12T08:51:22.697Z,10.15
2023-03-12T08:54:08.590Z,10.07
2023-03-12T08:56:54.470Z,10.06
2023-03-12T08:59:40.333Z,10.05
2023-03-12T09:02:26.204Z,10.05
2023-03-12T09:05:12.106Z,10.28
2023-03-12T09:07:57.942Z,10.28
2023-03-12T09:10:43.798Z,10.42
2023-03-12T09:13:40.695Z,10.08
2023-03-12T09:16:35.749Z,9.60
2023-03-12T09:19:21.663Z,9.95
2023-03-12T09:22:07.413Z,9.63
2023-03-12T09:24:53.268Z,9.54
2023-03-12T09:27:39.149Z,9.39
2023-03-12T09:30:24.979Z,9.16
2023-03-12T09:33:10.971Z,9.26
2023-03-12T09:35:56.896Z,9.45
2023-03-12T09:38:42.819Z,9.70
2023-03-12T09:41:28.527Z,9.95
2023-03-12T09:44:14.417Z,9.72
2023-03-12T09:47:00.408Z,10.06
2023-03-12T09:49:46.263Z,10.26
2023-03-12T09:52:32.192Z,9.91
2023-03-12T09:55:18.027Z,10.30
2023-03-12T09:58:03.815Z,10.48
2023-03-12T10:00:49.767Z,10.20
2023-03-12T10:03:35.549Z,10.10
2023-03-12T10:06:21.481Z,9.80
2023-03-12T10:09:07.588Z,10.13
2023-03-12T10:11:53.554Z,10.40
2023-03-12T10:14:39.354Z,10.55
2023-03-12T10:17:25.263Z,10.67
2023-03-12T10:20:11.010Z,10.69
2023-03-12T10:22:56.965Z,11.33
2023-03-12T10:25:42.885Z,11.25
2023-03-12T10:28:28.694Z,11.00
2023-03-12T10:31:14.684Z,11.13
2023-03-12T10:34:00.595Z,11.18
2023-03-12T10:36:46.512Z,10.92
2023-03-12T10:39:32.468Z,11.08
2023-03-12T10:42:18.321Z,11.07
2023-03-12T10:45:04.273Z,10.69
2023-03-12T10:47:50.293Z,10.60
2023-03-12T10:50:36.291Z,11.06
2023-03-12T10:53:22.345Z,10.70
2023-03-12T10:56:08.281Z,10.71
2023-03-12T10:58:54.258Z,10.78
2023-03-12T11:01:40.197Z,11.14
2023-03-12T11:04:28.708Z,10.70
2023-03-12T11:07:16.076Z,11.25
2023-03-12T11:10:02.051Z,11.69
2023-03-12T11:12:47.939Z,11.46
2023-03-12T11:15:34.007Z,11.35
2023-03-12T11:18:19.963Z,11.67
2023-03-12T11:21:05.845Z,11.69
2023-03-12T11:23:51.763Z,11.58
2023-03-12T11:26:37.658Z,11.47
2023-03-12T11:29:23.650Z,11.81
2023-03-12T11:32:09.616Z,11.77
2023-03-12T11:34:55.490Z,11.88
2023-03-12T11:37:41.369Z,11.46
2023-03-12T11:40:27.367Z,11.65
2023-03-12T11:43:13.195Z,11.34
2023-03-12T11:45:59.274Z,11.68
2023-03-12T11:48:45.223Z,11.47
2023-03-12T11:51:31.463Z,11.49
2023-03-12T11:54:17.394Z,11.93
2023-03-12T11:57:03.208Z,12.03
2023-03-12T11:59:49.043Z,11.79
2023-03-12T12:02:35.027Z,11.82
2023-03-12T12:05:20.845Z,11.91
2023-03-12T12:08:06.703Z,12.00
2023-03-12T12:10:52.600Z,11.67
2023-03-12T12:13:38.463Z,11.36
2023-03-12T12:16:24.475Z,11.48
2023-03-12T12:19:10.344Z,11.85
2023-03-12T12:21:56.268Z,11.79
2023-03-12T12:24:42.301Z,11.97
2023-03-12T12:27:28.122Z,12.25
2023-03-12T12:30:13.956Z,12.12
2023-03-12T12:32:59.897Z,12.73
2023-03-12T12:35:45.806Z,12.67
2023-03-12T12:38:31.828Z,11.98
2023-03-12T12:41:17.557Z,12.32
2023-03-12T12:44:03.491Z,12.50
2023-03-12T12:46:49.312Z,12.79
2023-03-12T12:49:35.134Z,12.41
2023-03-12T12:52:21.026Z,12.09
2023-03-12T12:55:06.851Z,12.48
2023-03-12T12:57:52.706Z,12.22
2023-03-12T13:00:38.622Z,12.43
2023-03-12T13:03:24.481Z,12.51
2023-03-12T13:06:10.269Z,12.58
2023-03-12T13:08:56.050Z,12.63
2023-03-12T13:11:41.986Z,12.74
2023-03-12T13:14:27.877Z,12.71
2023-03-12T13:17:13.678Z,12.38
2023-03-12T13:20:01.760Z,12.47
2023-03-12T13:22:48.009Z,12.10
2023-03-12T13:25:33.865Z,11.73
2023-03-12T13:28:19.647Z,11.82
2023-03-12T13:31:05.582Z,12.22
2023-03-12T13:33:51.392Z,11.59
2023-03-12T13:36:37.399Z,12.09
2023-03-12T13:39:23.348Z,12.35
2023-03-12T13:42:09.168Z,12.81
2023-03-12T13:44:54.999Z,12.16
2023-03-12T13:47:40.806Z,12.72
2023-03-12T13:50:26.713Z,13.35
2023-03-12T13:53:12.528Z,13.27
2023-03-12T13:55:58.427Z,13.16
2023-03-12T13:58:44.195Z,13.12
2023-03-12T14:01:30.051Z,13.54
2023-03-12T14:04:15.986Z,13.49
2023-03-12T14:07:02.278Z,13.47
2023-03-12T14:09:48.127Z,13.18
2023-03-12T14:12:34.011Z,13.24
2023-03-12T14:15:19.960Z,13.15
2023-03-12T14:18:05.861Z,13.57
2023-03-12T14:20:51.842Z,13.60
2023-03-12T14:23:37.717Z,13.46
2023-03-12T14:26:25.526Z,13.97
2023-03-12T14:29:11.548Z,13.40
2023-03-12T14:31:57.707Z,13.14
2023-03-12T14:34:43.773Z,13.47
2023-03-12T14:37:29.617Z,13.35
2023-03-12T14:40:15.576Z,13.21
2023-03-12T14:43:03.515Z,13.09
2023-03-12T14:45:49.414Z,13.27
2023-03-12T14:48:35.311Z,12.73
2023-03-12T14:51:23.952Z,12.84
2023-03-12T14:54:10.167Z,12.89
2023-03-12T14:56:56.086Z,13.15
2023-03-12T14:59:43.967Z,13.20
2023-03-12T15:02:29.903Z,13.33
2023-03-12T15:05:15.822Z,13.65
2023-03-12T15:08:01.984Z,13.54
2023-03-12T15:10:47.742Z,13.53
2023-03-12T15:13:33.622Z,13.84
2023-03-12T15:16:19.527Z,13.09
2023-03-12T15:19:05.429Z,12.70
2023-03-12T15:21:53.334Z,12.31
2023-03-12T15:24:39.218Z,12.48
2023-03-12T15:27:25.002Z,12.52
2023-03-12T15:30:10.993Z,13.17
2023-03-12T15:32:56.764Z,12.79
2023-03-12T15:35:42.746Z,12.84
2023-03-12T15:38:29.107Z,13.05
2023-03-12T15:41:14.971Z,13.31
2023-03-12T15:44:00.993Z,13.54
2023-03-12T15:46:48.516Z,13.45
2023-03-12T15:49:34.482Z,13.43
2023-03-12T15:52:20.582Z,13.31
2023-03-12T15:55:06.486Z,13.18
2023-03-12T15:57:52.381Z,12.69
2023-03-12T16:00:38.561Z,12.31
2023-03-12T16:03:24.397Z,12.33
2023-03-12T16:06:10.285Z,12.18
2023-03-12T16:08:56.253Z,12.13
2023-03-12T16:11:42.172Z,12.20
2023-03-12T16:14:28.118Z,12.25
2023-03-12T16:17:14.081Z,11.96
2023-03-12T16:19:59.862Z,12.40
2023-03-12T16:22:45.846Z,12.47
2023-03-12T16:25:31.690Z,12.41
2023-03-12T16:28:19.631Z,12.27
2023-03-12T16:31:05.449Z,12.13
2023-03-12T16:33:51.261Z,12.31
2023-03-12T16:36:37.194Z,12.56
2023-03-12T16:39:23.089Z,12.77
2023-03-12T16:42:08.848Z,12.70
2023-03-12T16:44:54.957Z,12.99
2023-03-12T16:47:41.393Z,12.75
2023-03-12T16:50:27.282Z,12.82
2023-03-12T16:53:13.390Z,13.02
2023-03-12T16:56:01.267Z,13.07
2023-03-12T16:58:47.176Z,13.35
2023-03-12T17:01:33.135Z,13.38
2023-03-12T17:04:19.310Z,13.71
2023-03-12T17:07:05.379Z,13.48
2023-03-12T17:09:51.344Z,13.96
2023-03-12T17:12:37.195Z,13.86
2023-03-12T17:15:23.025Z,14.16
2023-03-12T17:18:08.863Z,13.62
2023-03-12T17:20:54.784Z,13.68
2023-03-12T17:23:40.883Z,13.92
2023-03-12T17:26:26.911Z,13.72
2023-03-12T17:29:12.833Z,13.75
2023-03-12T17:31:58.835Z,13.20
2023-03-12T17:34:44.677Z,13.35
2023-03-12T17:37:30.620Z,12.95
2023-03-12T17:40:16.510Z,13.18
2023-03-12T17:43:02.399Z,13.23
2023-03-12T17:45:48.303Z,13.23
2023-03-12T17:48:34.227Z,13.28
2023-03-12T17:51:20.247Z,13.31
2023-03-12T17:54:06.078Z,13.50
2023-03-12T17:56:51.962Z,13.03
2023-03-12T17:59:37.962Z,13.41
2023-03-12T18:02:23.818Z,13.35
2023-03-12T18:05:09.793Z,12.92
2023-03-12T18:07:56.156Z,12.99
2023-03-12T18:10:42.180Z,12.95
2023-03-12T18:13:28.226Z,12.84
2023-03-12T18:16:14.299Z,12.85
2023-03-12T18:19:00.565Z,12.93
2023-03-12T18:21:46.538Z,12.61
2023-03-12T18:24:32.420Z,12.74
2023-03-12T18:27:18.266Z,12.70
2023-03-12T18:30:04.255Z,12.48
2023-03-12T18:32:50.185Z,12.17
2023-03-12T18:35:36.090Z,11.87
2023-03-12T18:38:21.951Z,11.90
2023-03-12T18:41:07.995Z,12.10
2023-03-12T18:43:53.857Z,11.95
2023-03-12T18:46:39.913Z,11.85
2023-03-12T18:49:25.823Z,11.58
2023-03-12T18:52:11.764Z,11.46
2023-03-12T18:54:57.620Z,11.38
2023-03-12T18:57:43.596Z,11.59
2023-03-12T19:00:29.459Z,11.68
2023-03-12T19:03:15.584Z,11.78
2023-03-12T19:06:01.653Z,11.61
2023-03-12T19:08:47.513Z,11.67
2023-03-12T19:11:33.533Z,11.71
2023-03-12T19:14:19.592Z,11.59
2023-03-12T19:17:05.301Z,11.56
2023-03-12T19:19:51.159Z,11.59
2023-03-12T19:22:37.132Z,11.63
2023-03-12T19:25:23.485Z,11.53
2023-03-12T19:28:09.487Z,11.44
2023-03-12T19:30:55.287Z,11.68
2023-03-12T19:33:41.203Z,11.17
2023-03-12T19:36:27.066Z,11.22
2023-03-12T19:39:21.032Z,11.32
2023-03-12T19:42:07.890Z,11.28
2023-03-12T19:44:53.826Z,11.36
2023-03-12T19:47:39.873Z,11.53
2023-03-12T19:50:25.632Z,11.56
2023-03-12T19:53:11.457Z,11.38
2023-03-12T19:55:57.259Z,11.34
2023-03-12T19:58:43.219Z,11.43
2023-03-12T20:01:29.133Z,11.42
2023-03-12T20:04:14.861Z,11.24
2023-03-12T20:07:00.799Z,11.49
2023-03-12T20:09:46.796Z,11.25
2023-03-12T20:12:32.545Z,11.10
2023-03-12T20:15:18.469Z,11.34
2023-03-12T20:18:04.369Z,11.27
2023-03-12T20:20:50.183Z,11.18
2023-03-12T20:23:36.165Z,11.06
2023-03-12T20:26:21.978Z,11.15
2023-03-12T20:29:07.966Z,11.46
2023-03-12T20:31:53.842Z,11.39
2023-03-12T20:34:39.918Z,11.30
2023-03-12T20:37:25.836Z,11.27
2023-03-12T20:40:11.603Z,11.47
2023-03-12T20:42:57.634Z,11.56
2023-03-12T20:45:43.682Z,11.36
2023-03-12T20:48:29.625Z,11.25
2023-03-12T20:51:15.519Z,11.45
2023-03-12T20:54:01.383Z,11.48
2023-03-12T20:56:47.159Z,11.37
2023-03-12T20:59:33.086Z,11.10
2023-03-12T21:02:18.941Z,11.53
2023-03-12T21:05:05.019Z,11.41
2023-03-12T21:07:50.915Z,11.38
2023-03-12T21:10:36.743Z,11.22
2023-03-12T21:13:22.744Z,11.39
2023-03-12T21:16:08.579Z,11.58
2023-03-12T21:18:54.405Z,11.50
2023-03-12T21:21:40.322Z,11.39
2023-03-12T21:24:26.169Z,11.55
2023-03-12T21:27:12.078Z,12.06
2023-03-12T21:29:58.025Z,11.96
2023-03-12T21:32:43.836Z,12.14
2023-03-12T21:35:29.832Z,11.88
2023-03-12T21:38:15.758Z,12.19
2023-03-12T21:41:01.830Z,12.13
2023-03-12T21:43:47.962Z,12.21
2023-03-12T21:46:33.905Z,11.87
2023-03-12T21:49:19.892Z,12.04
2023-03-12T21:52:05.713Z,11.85
2023-03-12T21:54:51.558Z,11.65
2023-03-12T21:57:37.388Z,11.27
2023-03-12T22:00:23.183Z,11.31
2023-03-12T22:03:09.070Z,11.02
2023-03-12T22:05:55.016Z,11.12
2023-03-12T22:08:40.831Z,11.32
2023-03-12T22:11:26.637Z,11.18
2023-03-12T22:14:12.509Z,11.00
2023-03-12T22:16:58.334Z,10.95
2023-03-12T22:19:44.313Z,11.13
2023-03-12T22:22:30.146Z,10.92
2023-03-12T22:25:15.981Z,10.96
2023-03-12T22:28:01.839Z,10.75
2023-03-12T22:30:47.758Z,10.65
2023-03-12T22:33:33.577Z,10.89
2023-03-12T22:36:20.743Z,10.69
2023-03-12T22:39:06.814Z,10.72
2023-03-12T22:41:52.611Z,10.89
2023-03-12T22:44:38.345Z,10.60
2023-03-12T22:47:24.465Z,10.40
2023-03-12T22:50:10.286Z,10.47
2023-03-12T22:52:56.192Z,10.70
2023-03-12T22:55:42.127Z,10.61
2023-03-12T22:58:28.041Z,10.96
2023-03-12T23:01:13.804Z,10.38
2023-03-12T23:03:59.875Z,10.74
2023-03-12T23:06:45.982Z,10.77
2023-03-12T23:09:31.966Z,11.15
2023-03-12T23:12:17.822Z,11.01
2023-03-12T23:15:03.792Z,11.32
2023-03-12T23:17:49.804Z,11.10
2023-03-12T23:20:37.584Z,11.47
2023-03-12T23:23:23.474Z,11.17
2023-03-12T23:26:09.419Z,11.25
2023-03-12T23:28:55.291Z,10.95
2023-03-12T23:31:41.278Z,10.57
2023-03-12T23:34:27.210Z,10.75
2023-03-12T23:37:13.036Z,10.66
2023-03-12T23:39:58.794Z,10.39
2023-03-12T23:42:44.702Z,10.44
2023-03-12T23:45:30.653Z,10.63
2023-03-12T23:48:16.554Z,10.73
2023-03-12T23:51:02.442Z,10.92
2023-03-12T23:53:48.434Z,10.82
2023-03-12T23:56:34.509Z,10.82
2023-03-12T23:59:20.375Z,10.81
